sensor_id;sensor_type;location;lat;lon;timestamp;pressure;altitude;pressure_sealevel;temperature;humidity
46015;BME280;36844;51.898;-0.874;2023-03-16T00:01:01;99802.66;;;18.38;
46015;BME280;36844;51.898;-0.874;2023-03-16T00:03:26;99804.59;;;18.38;
46015;BME280;36844;51.898;-0.874;2023-03-16T00:05:54;99798.81;;;18.36;
46015;BME280;36844;51.898;-0.874;2023-03-16T00:08:19;99783.09;;;18.34;
46015;BME280;36844;51.898;-0.874;2023-03-16T00:10:45;99779.28;;;18.32;
46015;BME280;36844;51.898;-0.874;2023-03-16T00:13:11;99780.47;;;18.31;
46015;BME280;36844;51.898;-0.874;2023-03-16T00:15:37;99773.22;;;18.28;
46015;BME280;36844;51.898;-0.874;2023-03-16T00:18:02;99768.97;;;18.27;
46015;BME280;36844;51.898;-0.874;2023-03-16T00:20:27;99771.28;;;18.25;
46015;BME280;36844;51.898;-0.874;2023-03-16T00:22:53;99756.34;;;18.24;
46015;BME280;36844;51.898;-0.874;2023-03-16T00:25:18;99752.09;;;18.23;
46015;BME280;36844;51.898;-0.874;2023-03-16T00:27:43;99752.19;;;18.19;
46015;BME280;36844;51.898;-0.874;2023-03-16T00:30:09;99756.03;;;18.18;
46015;BME280;36844;51.898;-0.874;2023-03-16T00:32:35;99751.06;;;18.17;
46015;BME280;36844;51.898;-0.874;2023-03-16T00:35:01;99745.31;;;18.15;
46015;BME280;36844;51.898;-0.874;2023-03-16T00:37:27;99734.97;;;18.13;
46015;BME280;36844;51.898;-0.874;2023-03-16T00:39:53;99734.22;;;18.13;
46015;BME280;36844;51.898;-0.874;2023-03-16T00:42:22;99737.72;;;18.10;
46015;BME280;36844;51.898;-0.874;2023-03-16T00:44:51;99732.75;;;18.08;
46015;BME280;36844;51.898;-0.874;2023-03-16T00:47:21;99730.44;;;18.07;
46015;BME280;36844;51.898;-0.874;2023-03-16T00:49:46;99730.88;;;18.05;
46015;BME280;36844;51.898;-0.874;2023-03-16T00:52:12;99721.66;;;18.03;
46015;BME280;36844;51.898;-0.874;2023-03-16T00:54:43;99714.78;;;18.02;
46015;BME280;36844;51.898;-0.874;2023-03-16T00:57:10;99718.66;;;18.01;
46015;BME280;36844;51.898;-0.874;2023-03-16T00:59:36;99719.81;;;18.00;
46015;BME280;36844;51.898;-0.874;2023-03-16T01:02:02;99708.69;;;17.98;
46015;BME280;36844;51.898;-0.874;2023-03-16T01:04:27;99703.72;;;17.96;
46015;BME280;36844;51.898;-0.874;2023-03-16T01:06:53;99700.66;;;17.94;
46015;BME280;36844;51.898;-0.874;2023-03-16T01:09:18;99691.06;;;17.93;
46015;BME280;36844;51.898;-0.874;2023-03-16T01:11:44;99682.66;;;17.91;
46015;BME280;36844;51.898;-0.874;2023-03-16T01:14:12;99672.28;;;17.90;
46015;BME280;36844;51.898;-0.874;2023-03-16T01:16:37;99664.59;;;17.88;
46015;BME280;36844;51.898;-0.874;2023-03-16T01:19:02;99665.78;;;17.87;
46015;BME280;36844;51.898;-0.874;2023-03-16T01:21:27;99656.94;;;17.87;
46015;BME280;36844;51.898;-0.874;2023-03-16T01:23:53;99648.50;;;17.85;
46015;BME280;36844;51.898;-0.874;2023-03-16T01:26:19;99651.63;;;17.83;
46015;BME280;36844;51.898;-0.874;2023-03-16T01:28:44;99644.72;;;17.82;
46015;BME280;36844;51.898;-0.874;2023-03-16T01:31:10;99648.56;;;17.81;
46015;BME280;36844;51.898;-0.874;2023-03-16T01:33:36;99641.34;;;17.78;
46015;BME280;36844;51.898;-0.874;2023-03-16T01:36:03;99639.78;;;17.77;
46015;BME280;36844;51.898;-0.874;2023-03-16T01:38:29;99634.84;;;17.75;
46015;BME280;36844;51.898;-0.874;2023-03-16T01:40:54;99635.25;;;17.74;
46015;BME280;36844;51.898;-0.874;2023-03-16T01:43:20;99632.97;;;17.72;
46015;BME280;36844;51.898;-0.874;2023-03-16T01:48:18;99621.09;;;17.70;
46015;BME280;36844;51.898;-0.874;2023-03-16T01:50:44;99624.97;;;17.69;
46015;BME280;36844;51.898;-0.874;2023-03-16T01:53:09;99626.53;;;17.66;
46015;BME280;36844;51.898;-0.874;2023-03-16T01:55:35;99607.69;;;17.66;
46015;BME280;36844;51.898;-0.874;2023-03-16T01:58:01;99608.09;;;17.65;
46015;BME280;36844;51.898;-0.874;2023-03-16T02:00:26;99600.41;;;17.63;
46015;BME280;36844;51.898;-0.874;2023-03-16T02:02:57;99600.41;;;17.63;
46015;BME280;36844;51.898;-0.874;2023-03-16T02:07:55;99595.88;;;17.60;
46015;BME280;36844;51.898;-0.874;2023-03-16T02:10:23;99598.25;;;17.58;
46015;BME280;36844;51.898;-0.874;2023-03-16T02:12:48;99603.63;;;17.58;
46015;BME280;36844;51.898;-0.874;2023-03-16T02:15:14;99587.09;;;17.56;
46015;BME280;36844;51.898;-0.874;2023-03-16T02:17:40;99589.03;;;17.56;
46015;BME280;36844;51.898;-0.874;2023-03-16T02:22:36;99585.25;;;17.53;
46015;BME280;36844;51.898;-0.874;2023-03-16T02:25:03;99587.94;;;17.53;
46015;BME280;36844;51.898;-0.874;2023-03-16T02:32:25;99575.69;;;17.49;
46015;BME280;36844;51.898;-0.874;2023-03-16T02:34:51;99573.47;;;17.47;
46015;BME280;36844;51.898;-0.874;2023-03-16T02:37:17;99563.84;;;17.46;
46015;BME280;36844;51.898;-0.874;2023-03-16T02:39:42;99560.38;;;17.46;
46015;BME280;36844;51.898;-0.874;2023-03-16T02:42:09;99564.69;;;17.43;
46015;BME280;36844;51.898;-0.874;2023-03-16T02:44:36;99562.00;;;17.43;
46015;BME280;36844;51.898;-0.874;2023-03-16T02:47:06;99556.59;;;17.43;
46015;BME280;36844;51.898;-0.874;2023-03-16T02:49:37;99539.31;;;17.41;
46015;BME280;36844;51.898;-0.874;2023-03-16T02:52:04;99543.94;;;17.40;
46015;BME280;36844;51.898;-0.874;2023-03-16T02:54:30;99534.38;;;17.39;
46015;BME280;36844;51.898;-0.874;2023-03-16T02:56:55;99536.31;;;17.39;
46015;BME280;36844;51.898;-0.874;2023-03-16T02:59:20;99545.53;;;17.38;
46015;BME280;36844;51.898;-0.874;2023-03-16T03:01:45;99542.06;;;17.37;
46015;BME280;36844;51.898;-0.874;2023-03-16T03:04:11;99553.28;;;17.36;
46015;BME280;36844;51.898;-0.874;2023-03-16T03:06:37;99546.38;;;17.35;
46015;BME280;36844;51.898;-0.874;2023-03-16T03:09:02;99534.84;;;17.34;
46015;BME280;36844;51.898;-0.874;2023-03-16T03:11:28;99525.22;;;17.33;
46015;BME280;36844;51.898;-0.874;2023-03-16T03:13:53;99533.31;;;17.33;
46015;BME280;36844;51.898;-0.874;2023-03-16T03:16:18;99531.78;;;17.32;
46015;BME280;36844;51.898;-0.874;2023-03-16T03:18:44;99532.97;;;17.31;
46015;BME280;36844;51.898;-0.874;2023-03-16T03:21:09;99534.91;;;17.31;
46015;BME280;36844;51.898;-0.874;2023-03-16T03:23:34;99540.69;;;17.29;
46015;BME280;36844;51.898;-0.874;2023-03-16T03:25:59;99535.75;;;17.28;
46015;BME280;36844;51.898;-0.874;2023-03-16T03:28:25;99541.88;;;17.28;
46015;BME280;36844;51.898;-0.874;2023-03-16T03:30:50;99537.66;;;17.27;
46015;BME280;36844;51.898;-0.874;2023-03-16T03:33:16;99528.06;;;17.26;
46015;BME280;36844;51.898;-0.874;2023-03-16T03:35:41;99526.53;;;17.25;
46015;BME280;36844;51.898;-0.874;2023-03-16T03:38:06;99530.44;;;17.24;
46015;BME280;36844;51.898;-0.874;2023-03-16T03:40:32;99526.97;;;17.24;
46015;BME280;36844;51.898;-0.874;2023-03-16T03:42:57;99523.50;;;17.23;
46015;BME280;36844;51.898;-0.874;2023-03-16T03:45:22;99522.75;;;17.23;
46015;BME280;36844;51.898;-0.874;2023-03-16T03:47:48;99521.22;;;17.22;
46015;BME280;36844;51.898;-0.874;2023-03-16T03:50:13;99520.47;;;17.21;
46015;BME280;36844;51.898;-0.874;2023-03-16T03:52:38;99519.72;;;17.21;
46015;BME280;36844;51.898;-0.874;2023-03-16T03:55:04;99523.59;;;17.20;
46015;BME280;36844;51.898;-0.874;2023-03-16T03:57:29;99521.28;;;17.18;
46015;BME280;36844;51.898;-0.874;2023-03-16T03:59:55;99523.19;;;17.18;
46015;BME280;36844;51.898;-0.874;2023-03-16T04:02:20;99519.03;;;17.17;
46015;BME280;36844;51.898;-0.874;2023-03-16T04:04:45;99525.56;;;17.16;
46015;BME280;36844;51.898;-0.874;2023-03-16T04:07:10;99522.13;;;17.15;
46015;BME280;36844;51.898;-0.874;2023-03-16T04:09:36;99515.97;;;17.15;
46015;BME280;36844;51.898;-0.874;2023-03-16T04:12:01;99520.56;;;17.14;
46015;BME280;36844;51.898;-0.874;2023-03-16T04:14:27;99519.84;;;17.14;
46015;BME280;36844;51.898;-0.874;2023-03-16T04:16:53;99517.56;;;17.12;
46015;BME280;36844;51.898;-0.874;2023-03-16T04:19:19;99506.03;;;17.12;
46015;BME280;36844;51.898;-0.874;2023-03-16T04:21:44;99514.13;;;17.12;
46015;BME280;36844;51.898;-0.874;2023-03-16T04:24:10;99505.28;;;17.11;
46015;BME280;36844;51.898;-0.874;2023-03-16T04:26:38;99502.22;;;17.09;
46015;BME280;36844;51.898;-0.874;2023-03-16T04:29:04;99494.16;;;17.09;
46015;BME280;36844;51.898;-0.874;2023-03-16T04:31:29;99487.28;;;17.08;
46015;BME280;36844;51.898;-0.874;2023-03-16T04:33:54;99481.91;;;17.08;
46015;BME280;36844;51.898;-0.874;2023-03-16T04:36:19;99484.25;;;17.06;
46015;BME280;36844;51.898;-0.874;2023-03-16T04:38:51;99483.06;;;17.07;
46015;BME280;36844;51.898;-0.874;2023-03-16T04:41:16;99493.50;;;17.05;
46015;BME280;36844;51.898;-0.874;2023-03-16T04:43:42;99490.81;;;17.05;
46015;BME280;36844;51.898;-0.874;2023-03-16T04:46:08;99493.50;;;17.05;
46015;BME280;36844;51.898;-0.874;2023-03-16T04:48:33;99491.19;;;17.04;
46015;BME280;36844;51.898;-0.874;2023-03-16T04:50:58;99489.25;;;17.04;
46015;BME280;36844;51.898;-0.874;2023-03-16T04:53:25;99483.53;;;17.02;
46015;BME280;36844;51.898;-0.874;2023-03-16T04:55:50;99482.78;;;17.02;
46015;BME280;36844;51.898;-0.874;2023-03-16T04:58:16;99479.34;;;17.01;
46015;BME280;36844;51.898;-0.874;2023-03-16T05:00:41;99483.19;;;17.00;
46015;BME280;36844;51.898;-0.874;2023-03-16T05:03:07;99476.28;;;16.99;
46015;BME280;36844;51.898;-0.874;2023-03-16T05:05:34;99479.72;;;17.00;
46015;BME280;36844;51.898;-0.874;2023-03-16T05:07:59;99474.78;;;16.98;
46015;BME280;36844;51.898;-0.874;2023-03-16T05:10:25;99479.38;;;16.98;
46015;BME280;36844;51.898;-0.874;2023-03-16T05:12:51;99475.19;;;16.97;
46015;BME280;36844;51.898;-0.874;2023-03-16T05:15:16;99477.13;;;16.96;
46015;BME280;36844;51.898;-0.874;2023-03-16T05:17:41;99478.25;;;16.95;
46015;BME280;36844;51.898;-0.874;2023-03-16T05:20:10;99478.25;;;16.95;
46015;BME280;36844;51.898;-0.874;2023-03-16T05:22:39;99474.84;;;16.95;
46015;BME280;36844;51.898;-0.874;2023-03-16T05:25:04;99479.44;;;16.94;
46015;BME280;36844;51.898;-0.874;2023-03-16T05:27:30;99463.72;;;16.93;
46015;BME280;36844;51.898;-0.874;2023-03-16T05:29:55;99474.50;;;16.93;
46015;BME280;36844;51.898;-0.874;2023-03-16T05:32:20;99475.63;;;16.92;
46015;BME280;36844;51.898;-0.874;2023-03-16T05:34:45;99469.53;;;16.91;
46015;BME280;36844;51.898;-0.874;2023-03-16T05:37:11;99462.63;;;16.90;
46015;BME280;36844;51.898;-0.874;2023-03-16T05:39:36;99468.00;;;16.90;
46015;BME280;36844;51.898;-0.874;2023-03-16T05:42:01;99466.47;;;16.89;
46015;BME280;36844;51.898;-0.874;2023-03-16T05:44:27;99466.88;;;16.88;
46015;BME280;36844;51.898;-0.874;2023-03-16T05:46:52;99468.81;;;16.87;
46015;BME280;36844;51.898;-0.874;2023-03-16T05:49:18;99463.44;;;16.87;
46015;BME280;36844;51.898;-0.874;2023-03-16T05:51:43;99452.69;;;16.87;
46015;BME280;36844;51.898;-0.874;2023-03-16T05:54:08;99451.16;;;16.86;
46015;BME280;36844;51.898;-0.874;2023-03-16T05:56:33;99455.78;;;16.86;
46015;BME280;36844;51.898;-0.874;2023-03-16T05:58:59;99452.34;;;16.85;
46015;BME280;36844;51.898;-0.874;2023-03-16T06:01:24;99463.47;;;16.83;
46015;BME280;36844;51.898;-0.874;2023-03-16T06:03:49;99465.44;;;16.83;
46015;BME280;36844;51.898;-0.874;2023-03-16T06:06:15;99468.13;;;16.83;
46015;BME280;36844;51.898;-0.874;2023-03-16T06:08:41;99463.94;;;16.82;
46015;BME280;36844;51.898;-0.874;2023-03-16T06:11:06;99455.09;;;16.82;
46015;BME280;36844;51.898;-0.874;2023-03-16T06:13:31;99459.69;;;16.81;
46015;BME280;36844;51.898;-0.874;2023-03-16T06:15:57;99456.25;;;16.80;
46015;BME280;36844;51.898;-0.874;2023-03-16T06:18:22;99454.72;;;16.79;
46015;BME280;36844;51.898;-0.874;2023-03-16T06:20:47;99448.59;;;16.79;
46015;BME280;36844;51.898;-0.874;2023-03-16T06:23:13;99460.53;;;16.78;
46015;BME280;36844;51.898;-0.874;2023-03-16T06:25:38;99457.84;;;16.78;
46015;BME280;36844;51.898;-0.874;2023-03-16T06:28:04;99464.38;;;16.77;
46015;BME280;36844;51.898;-0.874;2023-03-16T06:30:29;99466.31;;;16.76;
46015;BME280;36844;51.898;-0.874;2023-03-16T06:32:55;99463.63;;;16.76;
46015;BME280;36844;51.898;-0.874;2023-03-16T06:35:20;99470.19;;;16.75;
46015;BME280;36844;51.898;-0.874;2023-03-16T06:37:46;99476.72;;;16.74;
46015;BME280;36844;51.898;-0.874;2023-03-16T06:40:11;99470.59;;;16.74;
46015;BME280;36844;51.898;-0.874;2023-03-16T06:42:37;99475.97;;;16.74;
46015;BME280;36844;51.898;-0.874;2023-03-16T06:45:02;99477.13;;;16.73;
46015;BME280;36844;51.898;-0.874;2023-03-16T06:47:28;99462.91;;;16.72;
46015;BME280;36844;51.898;-0.874;2023-03-16T06:49:53;99463.69;;;16.73;
46015;BME280;36844;51.898;-0.874;2023-03-16T06:52:19;99458.31;;;16.73;
46015;BME280;36844;51.898;-0.874;2023-03-16T06:54:45;99456.78;;;16.72;
46015;BME280;36844;51.898;-0.874;2023-03-16T06:57:10;99455.22;;;16.74;
46015;BME280;36844;51.898;-0.874;2023-03-16T06:59:35;99441.03;;;16.74;
46015;BME280;36844;51.898;-0.874;2023-03-16T07:02:00;99429.09;;;16.75;
46015;BME280;36844;51.898;-0.874;2023-03-16T07:04:25;99419.84;;;16.76;
46015;BME280;36844;51.898;-0.874;2023-03-16T07:06:51;99421.38;;;16.77;
46015;BME280;36844;51.898;-0.874;2023-03-16T07:09:16;99416.34;;;16.79;
46015;BME280;36844;51.898;-0.874;2023-03-16T07:11:41;99409.38;;;16.82;
46015;BME280;36844;51.898;-0.874;2023-03-16T07:14:08;99414.34;;;16.83;
46015;BME280;36844;51.898;-0.874;2023-03-16T07:16:34;99413.50;;;16.86;
46015;BME280;36844;51.898;-0.874;2023-03-16T07:18:59;99401.94;;;16.89;
46015;BME280;36844;51.898;-0.874;2023-03-16T07:21:24;99423.41;;;16.93;
46015;BME280;36844;51.898;-0.874;2023-03-16T07:23:49;99417.94;;;16.96;
46015;BME280;36844;51.898;-0.874;2023-03-16T07:26:15;99423.25;;;17.00;
46015;BME280;36844;51.898;-0.874;2023-03-16T07:28:41;99427.41;;;17.04;
46015;BME280;36844;51.898;-0.874;2023-03-16T07:31:06;99420.03;;;17.08;
46015;BME280;36844;51.898;-0.874;2023-03-16T07:33:33;99412.22;;;17.14;
46015;BME280;36844;51.898;-0.874;2023-03-16T07:35:59;99412.50;;;17.19;
46015;BME280;36844;51.898;-0.874;2023-03-16T07:38:24;99427.41;;;17.24;
46015;BME280;36844;51.898;-0.874;2023-03-16T07:40:49;99436.50;;;17.30;
46015;BME280;36844;51.898;-0.874;2023-03-16T07:43:16;99430.19;;;17.36;
46015;BME280;36844;51.898;-0.874;2023-03-16T07:45:41;99439.34;;;17.42;
46015;BME280;36844;51.898;-0.874;2023-03-16T07:48:11;99436.88;;;17.48;
46015;BME280;36844;51.898;-0.874;2023-03-16T07:50:36;99438.72;;;17.54;
46015;BME280;36844;51.898;-0.874;2023-03-16T07:53:01;99435.50;;;17.59;
46015;BME280;36844;51.898;-0.874;2023-03-16T07:55:26;99434.25;;;17.64;
46015;BME280;36844;51.898;-0.874;2023-03-16T07:57:52;99437.97;;;17.70;
46015;BME280;36844;51.898;-0.874;2023-03-16T08:00:17;99440.94;;;17.75;
46015;BME280;36844;51.898;-0.874;2023-03-16T08:02:47;99440.47;;;17.81;
46015;BME280;36844;51.898;-0.874;2023-03-16T08:05:13;99447.28;;;17.85;
46015;BME280;36844;51.898;-0.874;2023-03-16T08:07:39;99448.38;;;17.88;
46015;BME280;36844;51.898;-0.874;2023-03-16T08:10:05;99459.84;;;17.92;
46015;BME280;36844;51.898;-0.874;2023-03-16T08:12:30;99453.59;;;17.95;
46015;BME280;36844;51.898;-0.874;2023-03-16T08:14:55;99463.53;;;17.98;
46015;BME280;36844;51.898;-0.874;2023-03-16T08:17:21;99463.88;;;18.00;
46015;BME280;36844;51.898;-0.874;2023-03-16T08:19:46;99456.91;;;18.02;
46015;BME280;36844;51.898;-0.874;2023-03-16T08:22:12;99463.41;;;18.05;
46015;BME280;36844;51.898;-0.874;2023-03-16T08:24:37;99454.88;;;18.06;
46015;BME280;36844;51.898;-0.874;2023-03-16T08:27:02;99451.75;;;18.08;
46015;BME280;36844;51.898;-0.874;2023-03-16T08:29:27;99453.59;;;18.11;
46015;BME280;36844;51.898;-0.874;2023-03-16T08:31:53;99458.59;;;18.12;
46015;BME280;36844;51.898;-0.874;2023-03-16T08:34:25;99452.44;;;18.12;
46015;BME280;36844;51.898;-0.874;2023-03-16T08:36:50;99448.59;;;18.13;
46015;BME280;36844;51.898;-0.874;2023-03-16T08:39:16;99444.69;;;18.14;
46015;BME280;36844;51.898;-0.874;2023-03-16T08:41:41;99450.44;;;18.16;
46015;BME280;36844;51.898;-0.874;2023-03-16T08:44:07;99442.34;;;18.16;
46015;BME280;36844;51.898;-0.874;2023-03-16T08:46:33;99443.13;;;18.16;
46015;BME280;36844;51.898;-0.874;2023-03-16T08:48:58;99449.25;;;18.17;
46015;BME280;36844;51.898;-0.874;2023-03-16T08:51:23;99443.84;;;18.17;
46015;BME280;36844;51.898;-0.874;2023-03-16T08:53:49;99449.25;;;18.17;
46015;BME280;36844;51.898;-0.874;2023-03-16T08:56:14;99449.25;;;18.17;
46015;BME280;36844;51.898;-0.874;2023-03-16T08:58:40;99453.91;;;18.16;
46015;BME280;36844;51.898;-0.874;2023-03-16T09:01:09;99446.53;;;18.17;
46015;BME280;36844;51.898;-0.874;2023-03-16T09:03:36;99449.25;;;18.17;
46015;BME280;36844;51.898;-0.874;2023-03-16T09:06:03;99449.25;;;18.17;
46015;BME280;36844;51.898;-0.874;2023-03-16T09:08:29;99449.66;;;18.15;
46015;BME280;36844;51.898;-0.874;2023-03-16T09:11:01;99444.28;;;18.15;
46015;BME280;36844;51.898;-0.874;2023-03-16T09:13:27;99449.31;;;18.13;
46015;BME280;36844;51.898;-0.874;2023-03-16T09:15:53;99443.94;;;18.13;
46015;BME280;36844;51.898;-0.874;2023-03-16T09:18:18;99443.19;;;18.13;
46015;BME280;36844;51.898;-0.874;2023-03-16T09:20:44;99438.97;;;18.12;
46015;BME280;36844;51.898;-0.874;2023-03-16T09:23:11;99441.66;;;18.12;
46015;BME280;36844;51.898;-0.874;2023-03-16T09:25:38;99440.13;;;18.11;
46015;BME280;36844;51.898;-0.874;2023-03-16T09:28:03;99447.91;;;18.09;
46015;BME280;36844;51.898;-0.874;2023-03-16T09:30:28;99452.53;;;18.08;
46015;BME280;36844;51.898;-0.874;2023-03-16T09:32:54;99447.53;;;18.07;
46015;BME280;36844;51.898;-0.874;2023-03-16T09:35:19;99449.50;;;18.06;
46015;BME280;36844;51.898;-0.874;2023-03-16T09:37:45;99445.28;;;18.05;
46015;BME280;36844;51.898;-0.874;2023-03-16T09:40:20;99450.31;;;18.03;
46015;BME280;36844;51.898;-0.874;2023-03-16T09:45:31;99448.06;;;18.02;
46015;BME280;36844;51.898;-0.874;2023-03-16T09:48:00;99450.41;;;18.00;
46015;BME280;36844;51.898;-0.874;2023-03-16T09:50:28;99447.72;;;18.00;
46015;BME280;36844;51.898;-0.874;2023-03-16T09:52:57;99441.97;;;17.98;
46015;BME280;36844;51.898;-0.874;2023-03-16T09:55:27;99445.09;;;17.96;
46015;BME280;36844;51.898;-0.874;2023-03-16T09:57:55;99449.72;;;17.96;
46015;BME280;36844;51.898;-0.874;2023-03-16T10:05:16;99430.94;;;17.92;
46015;BME280;36844;51.898;-0.874;2023-03-16T10:08:06;99432.13;;;17.91;
46015;BME280;36844;51.898;-0.874;2023-03-16T10:13:19;99424.13;;;17.88;
46015;BME280;36844;51.898;-0.874;2023-03-16T10:15:47;99417.22;;;17.87;
46015;BME280;36844;51.898;-0.874;2023-03-16T10:18:14;99424.53;;;17.86;
46015;BME280;36844;51.898;-0.874;2023-03-16T10:20:42;99421.09;;;17.86;
46015;BME280;36844;51.898;-0.874;2023-03-16T10:23:15;99419.91;;;17.87;
46015;BME280;36844;51.898;-0.874;2023-03-16T10:25:48;99424.53;;;17.86;
46015;BME280;36844;51.898;-0.874;2023-03-16T10:28:26;99417.22;;;17.87;
46015;BME280;36844;51.898;-0.874;2023-03-16T10:30:53;99409.91;;;17.87;
46015;BME280;36844;51.898;-0.874;2023-03-16T10:33:23;99412.19;;;17.89;
46015;BME280;36844;51.898;-0.874;2023-03-16T10:43:41;99404.25;;;17.98;
46015;BME280;36844;51.898;-0.874;2023-03-16T10:46:08;99388.44;;;18.00;
46015;BME280;36844;51.898;-0.874;2023-03-16T10:48:34;99384.91;;;18.03;
46015;BME280;36844;51.898;-0.874;2023-03-16T10:50:59;99389.47;;;18.06;
46015;BME280;36844;51.898;-0.874;2023-03-16T10:53:30;99382.47;;;18.08;
46015;BME280;36844;51.898;-0.874;2023-03-16T10:55:59;99388.53;;;18.12;
46015;BME280;36844;51.898;-0.874;2023-03-16T10:58:28;99385.00;;;18.15;
46015;BME280;36844;51.898;-0.874;2023-03-16T11:00:54;99377.22;;;18.17;
46015;BME280;36844;51.898;-0.874;2023-03-16T11:03:29;99379.13;;;18.20;
46015;BME280;36844;51.898;-0.874;2023-03-16T11:05:58;99371.34;;;18.22;
46015;BME280;36844;51.898;-0.874;2023-03-16T11:08:25;99360.16;;;18.24;
46015;BME280;36844;51.898;-0.874;2023-03-16T11:10:55;99350.47;;;18.26;
46015;BME280;36844;51.898;-0.874;2023-03-16T11:13:24;99355.44;;;18.28;
46015;BME280;36844;51.898;-0.874;2023-03-16T11:15:57;99351.13;;;18.30;
46015;BME280;36844;51.898;-0.874;2023-03-16T11:18:36;99343.34;;;18.32;
46015;BME280;36844;51.898;-0.874;2023-03-16T11:23:38;99336.41;;;18.35;
46015;BME280;36844;51.898;-0.874;2023-03-16T11:26:06;99335.53;;;18.38;
46015;BME280;36844;51.898;-0.874;2023-03-16T11:28:39;99334.34;;;18.39;
46015;BME280;36844;51.898;-0.874;2023-03-16T11:31:11;99334.66;;;18.41;
46015;BME280;36844;51.898;-0.874;2023-03-16T11:33:39;99335.00;;;18.43;
46015;BME280;36844;51.898;-0.874;2023-03-16T11:44:06;99330.72;;;18.45;
46015;BME280;36844;51.898;-0.874;2023-03-16T11:49:38;99333.41;;;18.45;
46015;BME280;36844;51.898;-0.874;2023-03-16T11:54:37;99315.28;;;18.46;
46015;BME280;36844;51.898;-0.874;2023-03-16T11:59:54;99278.28;;;18.46;
46015;BME280;36844;51.898;-0.874;2023-03-16T12:04:49;99306.03;;;18.47;
46015;BME280;36844;51.898;-0.874;2023-03-16T12:10:00;99317.53;;;18.47;
46015;BME280;36844;51.898;-0.874;2023-03-16T12:17:46;99292.22;;;18.45;
46015;BME280;36844;51.898;-0.874;2023-03-16T12:22:44;99286.06;;;18.44;
46015;BME280;36844;51.898;-0.874;2023-03-16T12:25:18;99292.22;;;18.45;
46015;BME280;36844;51.898;-0.874;2023-03-16T12:27:46;99289.94;;;18.43;
46015;BME280;36844;51.898;-0.874;2023-03-16T12:30:27;99288.41;;;18.42;
46015;BME280;36844;51.898;-0.874;2023-03-16T12:40:45;99292.41;;;18.38;
46015;BME280;36844;51.898;-0.874;2023-03-16T12:48:07;99288.19;;;18.37;
46015;BME280;36844;51.898;-0.874;2023-03-16T12:50:46;99280.09;;;18.37;
46015;BME280;36844;51.898;-0.874;2023-03-16T12:53:23;99283.97;;;18.36;
46015;BME280;36844;51.898;-0.874;2023-03-16T12:55:49;99275.13;;;18.35;
46015;BME280;36844;51.898;-0.874;2023-03-16T12:58:14;99263.63;;;18.35;
46015;BME280;36844;51.898;-0.874;2023-03-16T13:00:41;99262.41;;;18.36;
46015;BME280;36844;51.898;-0.874;2023-03-16T13:03:12;99254.31;;;18.36;
46015;BME280;36844;51.898;-0.874;2023-03-16T13:05:43;99252.38;;;18.36;
46015;BME280;36844;51.898;-0.874;2023-03-16T13:08:10;99259.28;;;18.37;
46015;BME280;36844;51.898;-0.874;2023-03-16T13:10:37;99250.78;;;18.39;
46015;BME280;36844;51.898;-0.874;2023-03-16T13:13:14;99253.03;;;18.40;
46015;BME280;36844;51.898;-0.874;2023-03-16T13:15:40;99255.34;;;18.42;
46015;BME280;36844;51.898;-0.874;2023-03-16T13:23:19;99261.34;;;18.46;
46015;BME280;36844;51.898;-0.874;2023-03-16T13:28:27;99257.06;;;18.48;
46015;BME280;36844;51.898;-0.874;2023-03-16T13:30:52;99259.31;;;18.50;
46015;BME280;36844;51.898;-0.874;2023-03-16T13:33:22;99253.50;;;18.51;
46015;BME280;36844;51.898;-0.874;2023-03-16T13:35:49;99241.53;;;18.52;
46015;BME280;36844;51.898;-0.874;2023-03-16T13:38:15;99234.97;;;18.53;
46015;BME280;36844;51.898;-0.874;2023-03-16T13:40:44;99227.63;;;18.54;
46015;BME280;36844;51.898;-0.874;2023-03-16T13:43:14;99227.19;;;18.55;
46015;BME280;36844;51.898;-0.874;2023-03-16T13:45:39;99228.06;;;18.52;
46015;BME280;36844;51.898;-0.874;2023-03-16T13:48:05;99226.75;;;18.57;
46015;BME280;36844;51.898;-0.874;2023-03-16T13:50:34;99235.19;;;18.59;
46015;BME280;36844;51.898;-0.874;2023-03-16T13:53:03;99228.59;;;18.60;
46015;BME280;36844;51.898;-0.874;2023-03-16T13:55:35;99230.13;;;18.61;
46015;BME280;36844;51.898;-0.874;2023-03-16T13:58:01;99231.66;;;18.62;
46015;BME280;36844;51.898;-0.874;2023-03-16T14:00:29;99224.31;;;18.62;
46015;BME280;36844;51.898;-0.874;2023-03-16T14:02:57;99226.56;;;18.64;
46015;BME280;36844;51.898;-0.874;2023-03-16T14:05:32;99215.75;;;18.64;
46015;BME280;36844;51.898;-0.874;2023-03-16T14:07:59;99224.22;;;18.66;
46015;BME280;36844;51.898;-0.874;2023-03-16T14:10:31;99210.72;;;18.66;
46015;BME280;36844;51.898;-0.874;2023-03-16T14:13:08;99221.53;;;18.66;
46015;BME280;36844;51.898;-0.874;2023-03-16T14:15:35;99211.50;;;18.66;
46015;BME280;36844;51.898;-0.874;2023-03-16T14:18:13;99210.72;;;18.66;
46015;BME280;36844;51.898;-0.874;2023-03-16T14:20:40;99214.19;;;18.66;
46015;BME280;36844;51.898;-0.874;2023-03-16T14:23:14;99214.19;;;18.66;
46015;BME280;36844;51.898;-0.874;2023-03-16T14:25:40;99209.50;;;18.67;
46015;BME280;36844;51.898;-0.874;2023-03-16T14:28:07;99208.34;;;18.68;
46015;BME280;36844;51.898;-0.874;2023-03-16T14:30:32;99218.34;;;18.67;
46015;BME280;36844;51.898;-0.874;2023-03-16T14:32:58;99222.59;;;18.68;
46015;BME280;36844;51.898;-0.874;2023-03-16T14:35:26;99213.72;;;18.68;
46015;BME280;36844;51.898;-0.874;2023-03-16T14:37:52;99206.41;;;18.68;
46015;BME280;36844;51.898;-0.874;2023-03-16T14:40:31;99218.34;;;18.67;
46015;BME280;36844;51.898;-0.874;2023-03-16T14:43:01;99211.50;;;18.66;
46015;BME280;36844;51.898;-0.874;2023-03-16T14:45:32;99211.91;;;18.65;
46015;BME280;36844;51.898;-0.874;2023-03-16T14:48:04;99204.25;;;18.63;
46015;BME280;36844;51.898;-0.874;2023-03-16T14:50:30;99199.28;;;18.62;
46015;BME280;36844;51.898;-0.874;2023-03-16T14:52:57;99200.47;;;18.61;
46015;BME280;36844;51.898;-0.874;2023-03-16T14:55:22;99196.69;;;18.58;
46015;BME280;36844;51.898;-0.874;2023-03-16T14:57:48;99202.50;;;18.57;
46015;BME280;36844;51.898;-0.874;2023-03-16T15:00:15;99199.50;;;18.55;
46015;BME280;36844;51.898;-0.874;2023-03-16T15:02:42;99197.97;;;18.54;
46015;BME280;36844;51.898;-0.874;2023-03-16T15:05:09;99193.75;;;18.53;